sensor_id;sensor_type;location;lat;lon;timestamp;temperature;humidity
36690;DHT22;22676;51.120;3.702;2022-11-21T00:02:12;20.70;57.60
36690;DHT22;22676;51.120;3.702;2022-11-21T00:04:37;20.80;57.40
36690;DHT22;22676;51.120;3.702;2022-11-21T00:07:03;20.80;57.30
36690;DHT22;22676;51.120;3.702;2022-11-21T00:09:28;20.70;57.00
36690;DHT22;22676;51.120;3.702;2022-11-21T00:11:54;20.70;56.80
36690;DHT22;22676;51.120;3.702;2022-11-21T00:14:20;20.70;56.80
36690;DHT22;22676;51.120;3.702;2022-11-21T00:16:45;20.70;56.80
36690;DHT22;22676;51.120;3.702;2022-11-21T00:19:11;20.60;56.80
36690;DHT22;22676;51.120;3.702;2022-11-21T00:21:36;20.70;56.90
36690;DHT22;22676;51.120;3.702;2022-11-21T00:24:02;20.70;57.00
36690;DHT22;22676;51.120;3.702;2022-11-21T00:26:27;20.70;56.80
36690;DHT22;22676;51.120;3.702;2022-11-21T00:28:53;20.70;56.70
36690;DHT22;22676;51.120;3.702;2022-11-21T00:31:19;20.70;57.30
36690;DHT22;22676;51.120;3.702;2022-11-21T00:33:45;20.70;56.80
36690;DHT22;22676;51.120;3.702;2022-11-21T00:36:11;20.70;56.60
36690;DHT22;22676;51.120;3.702;2022-11-21T00:38:36;20.70;56.60
36690;DHT22;22676;51.120;3.702;2022-11-21T00:41:02;20.70;57.30
36690;DHT22;22676;51.120;3.702;2022-11-21T00:43:27;20.70;56.80
36690;DHT22;22676;51.120;3.702;2022-11-21T00:45:53;20.70;56.60
36690;DHT22;22676;51.120;3.702;2022-11-21T00:48:18;20.70;56.80
36690;DHT22;22676;51.120;3.702;2022-11-21T00:50:46;20.70;56.80
36690;DHT22;22676;51.120;3.702;2022-11-21T00:53:12;20.70;56.70
36690;DHT22;22676;51.120;3.702;2022-11-21T00:55:37;20.60;57.20
36690;DHT22;22676;51.120;3.702;2022-11-21T00:58:03;20.70;56.80
36690;DHT22;22676;51.120;3.702;2022-11-21T01:00:28;20.60;56.70
36690;DHT22;22676;51.120;3.702;2022-11-21T01:02:54;20.60;56.70
36690;DHT22;22676;51.120;3.702;2022-11-21T01:05:20;20.60;56.70
36690;DHT22;22676;51.120;3.702;2022-11-21T01:07:47;20.70;56.50
36690;DHT22;22676;51.120;3.702;2022-11-21T01:10:12;20.70;56.60
36690;DHT22;22676;51.120;3.702;2022-11-21T01:12:38;20.60;56.60
36690;DHT22;22676;51.120;3.702;2022-11-21T01:15:03;20.60;56.60
36690;DHT22;22676;51.120;3.702;2022-11-21T01:17:30;20.70;56.50
36690;DHT22;22676;51.120;3.702;2022-11-21T01:19:56;20.60;56.40
36690;DHT22;22676;51.120;3.702;2022-11-21T01:22:21;20.60;56.30
36690;DHT22;22676;51.120;3.702;2022-11-21T01:24:47;20.60;56.40
36690;DHT22;22676;51.120;3.702;2022-11-21T01:27:12;20.70;56.50
36690;DHT22;22676;51.120;3.702;2022-11-21T01:29:38;20.70;56.40
36690;DHT22;22676;51.120;3.702;2022-11-21T01:32:04;20.70;56.30
36690;DHT22;22676;51.120;3.702;2022-11-21T01:34:29;20.70;56.30
36690;DHT22;22676;51.120;3.702;2022-11-21T01:36:55;20.70;56.20
36690;DHT22;22676;51.120;3.702;2022-11-21T01:39:20;20.70;56.20
36690;DHT22;22676;51.120;3.702;2022-11-21T01:41:46;20.70;56.20
36690;DHT22;22676;51.120;3.702;2022-11-21T01:44:19;20.70;56.20
36690;DHT22;22676;51.120;3.702;2022-11-21T01:46:45;20.70;56.10
36690;DHT22;22676;51.120;3.702;2022-11-21T01:49:22;20.70;56.20
36690;DHT22;22676;51.120;3.702;2022-11-21T01:51:49;20.70;56.00
36690;DHT22;22676;51.120;3.702;2022-11-21T01:59:51;20.70;56.20
36690;DHT22;22676;51.120;3.702;2022-11-21T02:02:20;20.70;56.10
36690;DHT22;22676;51.120;3.702;2022-11-21T02:07:22;20.70;56.10
36690;DHT22;22676;51.120;3.702;2022-11-21T02:09:50;20.70;56.20
36690;DHT22;22676;51.120;3.702;2022-11-21T02:12:20;20.70;56.10
36690;DHT22;22676;51.120;3.702;2022-11-21T02:14:47;20.70;56.20
36690;DHT22;22676;51.120;3.702;2022-11-21T02:17:16;20.70;55.90
36690;DHT22;22676;51.120;3.702;2022-11-21T02:19:48;20.70;55.90
36690;DHT22;22676;51.120;3.702;2022-11-21T02:24:45;20.70;55.80
36690;DHT22;22676;51.120;3.702;2022-11-21T02:27:11;20.70;55.80
36690;DHT22;22676;51.120;3.702;2022-11-21T02:29:38;20.70;55.70
36690;DHT22;22676;51.120;3.702;2022-11-21T02:32:03;20.70;55.70
36690;DHT22;22676;51.120;3.702;2022-11-21T02:34:29;20.70;55.70
36690;DHT22;22676;51.120;3.702;2022-11-21T02:36:55;20.70;55.60
36690;DHT22;22676;51.120;3.702;2022-11-21T02:39:34;20.70;55.80
36690;DHT22;22676;51.120;3.702;2022-11-21T02:42:05;20.80;55.80
36690;DHT22;22676;51.120;3.702;2022-11-21T02:44:37;20.80;55.70
36690;DHT22;22676;51.120;3.702;2022-11-21T02:47:04;20.80;55.50
36690;DHT22;22676;51.120;3.702;2022-11-21T02:49:36;20.70;55.40
36690;DHT22;22676;51.120;3.702;2022-11-21T02:52:03;20.80;55.50
36690;DHT22;22676;51.120;3.702;2022-11-21T02:54:28;20.80;55.30
36690;DHT22;22676;51.120;3.702;2022-11-21T02:56:54;20.80;55.30
36690;DHT22;22676;51.120;3.702;2022-11-21T02:59:20;20.80;55.20
36690;DHT22;22676;51.120;3.702;2022-11-21T03:01:46;20.80;55.20
36690;DHT22;22676;51.120;3.702;2022-11-21T03:04:11;20.70;55.20
36690;DHT22;22676;51.120;3.702;2022-11-21T03:06:37;20.80;55.70
36690;DHT22;22676;51.120;3.702;2022-11-21T03:09:02;20.70;55.30
36690;DHT22;22676;51.120;3.702;2022-11-21T03:11:28;20.80;55.40
36690;DHT22;22676;51.120;3.702;2022-11-21T03:13:53;20.80;55.40
36690;DHT22;22676;51.120;3.702;2022-11-21T03:16:19;20.80;55.20
36690;DHT22;22676;51.120;3.702;2022-11-21T03:18:44;20.80;55.20
36690;DHT22;22676;51.120;3.702;2022-11-21T03:21:10;20.80;55.10
36690;DHT22;22676;51.120;3.702;2022-11-21T03:23:35;20.80;55.10
36690;DHT22;22676;51.120;3.702;2022-11-21T03:26:01;20.70;55.20
36690;DHT22;22676;51.120;3.702;2022-11-21T03:28:26;20.70;55.40
36690;DHT22;22676;51.120;3.702;2022-11-21T03:30:52;20.70;55.30
36690;DHT22;22676;51.120;3.702;2022-11-21T03:33:17;20.70;55.20
36690;DHT22;22676;51.120;3.702;2022-11-21T03:35:43;20.70;55.00
36690;DHT22;22676;51.120;3.702;2022-11-21T03:38:08;20.80;55.00
36690;DHT22;22676;51.120;3.702;2022-11-21T03:40:34;20.80;55.20
36690;DHT22;22676;51.120;3.702;2022-11-21T03:43:05;20.80;55.00
36690;DHT22;22676;51.120;3.702;2022-11-21T03:45:32;20.80;55.10
36690;DHT22;22676;51.120;3.702;2022-11-21T03:47:57;20.80;55.10
36690;DHT22;22676;51.120;3.702;2022-11-21T03:50:23;20.80;54.80
36690;DHT22;22676;51.120;3.702;2022-11-21T03:52:48;20.80;54.60
36690;DHT22;22676;51.120;3.702;2022-11-21T03:55:14;20.80;54.90
36690;DHT22;22676;51.120;3.702;2022-11-21T03:57:39;20.80;55.30
36690;DHT22;22676;51.120;3.702;2022-11-21T04:00:05;20.80;54.60
36690;DHT22;22676;51.120;3.702;2022-11-21T04:02:30;20.80;54.60
36690;DHT22;22676;51.120;3.702;2022-11-21T04:04:56;20.80;54.60
36690;DHT22;22676;51.120;3.702;2022-11-21T04:07:21;20.80;54.50
36690;DHT22;22676;51.120;3.702;2022-11-21T04:09:47;20.80;54.10
36690;DHT22;22676;51.120;3.702;2022-11-21T04:12:12;20.80;54.30
36690;DHT22;22676;51.120;3.702;2022-11-21T04:14:38;20.80;54.10
36690;DHT22;22676;51.120;3.702;2022-11-21T04:17:03;20.80;54.00
36690;DHT22;22676;51.120;3.702;2022-11-21T04:19:29;20.80;54.30
36690;DHT22;22676;51.120;3.702;2022-11-21T04:21:55;20.80;54.30
36690;DHT22;22676;51.120;3.702;2022-11-21T04:24:20;20.80;54.20
36690;DHT22;22676;51.120;3.702;2022-11-21T04:26:46;20.80;54.40
36690;DHT22;22676;51.120;3.702;2022-11-21T04:29:11;20.80;54.30
36690;DHT22;22676;51.120;3.702;2022-11-21T04:31:37;20.80;53.80
36690;DHT22;22676;51.120;3.702;2022-11-21T04:34:03;20.80;54.10
36690;DHT22;22676;51.120;3.702;2022-11-21T04:36:28;20.80;54.10
36690;DHT22;22676;51.120;3.702;2022-11-21T04:38:54;20.80;54.10
36690;DHT22;22676;51.120;3.702;2022-11-21T04:41:19;20.80;54.10
36690;DHT22;22676;51.120;3.702;2022-11-21T04:43:45;20.70;54.00
36690;DHT22;22676;51.120;3.702;2022-11-21T04:46:10;20.80;53.90
36690;DHT22;22676;51.120;3.702;2022-11-21T04:48:36;20.80;54.00
36690;DHT22;22676;51.120;3.702;2022-11-21T04:51:01;20.80;53.70
36690;DHT22;22676;51.120;3.702;2022-11-21T04:53:27;20.70;53.80
36690;DHT22;22676;51.120;3.702;2022-11-21T04:55:52;20.70;53.80
36690;DHT22;22676;51.120;3.702;2022-11-21T04:58:18;20.70;53.90
36690;DHT22;22676;51.120;3.702;2022-11-21T05:00:43;20.70;54.00
36690;DHT22;22676;51.120;3.702;2022-11-21T05:03:09;20.70;53.90
36690;DHT22;22676;51.120;3.702;2022-11-21T05:05:35;20.70;53.90
36690;DHT22;22676;51.120;3.702;2022-11-21T05:08:00;20.70;53.60
36690;DHT22;22676;51.120;3.702;2022-11-21T05:10:26;20.70;53.80
36690;DHT22;22676;51.120;3.702;2022-11-21T05:12:55;20.70;53.70
36690;DHT22;22676;51.120;3.702;2022-11-21T05:15:39;20.70;54.10
36690;DHT22;22676;51.120;3.702;2022-11-21T05:18:04;20.70;53.80
36690;DHT22;22676;51.120;3.702;2022-11-21T05:20:30;20.60;53.70
36690;DHT22;22676;51.120;3.702;2022-11-21T05:22:55;20.60;53.70
36690;DHT22;22676;51.120;3.702;2022-11-21T05:25:21;20.60;53.60
36690;DHT22;22676;51.120;3.702;2022-11-21T05:27:47;20.60;53.60
36690;DHT22;22676;51.120;3.702;2022-11-21T05:30:12;20.60;53.50
36690;DHT22;22676;51.120;3.702;2022-11-21T05:32:38;20.60;53.60
36690;DHT22;22676;51.120;3.702;2022-11-21T05:35:03;20.60;53.60
36690;DHT22;22676;51.120;3.702;2022-11-21T05:37:29;20.80;54.00
36690;DHT22;22676;51.120;3.702;2022-11-21T05:39:54;20.90;53.70
36690;DHT22;22676;51.120;3.702;2022-11-21T05:42:20;20.90;53.50
36690;DHT22;22676;51.120;3.702;2022-11-21T05:45:05;21.00;53.30
36690;DHT22;22676;51.120;3.702;2022-11-21T05:47:31;20.90;52.90
36690;DHT22;22676;51.120;3.702;2022-11-21T05:49:57;21.00;53.20
36690;DHT22;22676;51.120;3.702;2022-11-21T05:52:22;21.10;53.80
36690;DHT22;22676;51.120;3.702;2022-11-21T05:54:48;21.20;53.80
36690;DHT22;22676;51.120;3.702;2022-11-21T05:57:13;21.20;53.10
36690;DHT22;22676;51.120;3.702;2022-11-21T05:59:39;21.20;53.40
36690;DHT22;22676;51.120;3.702;2022-11-21T06:02:04;21.20;53.00
36690;DHT22;22676;51.120;3.702;2022-11-21T06:04:48;21.20;53.00
36690;DHT22;22676;51.120;3.702;2022-11-21T06:07:14;21.20;53.10
36690;DHT22;22676;51.120;3.702;2022-11-21T06:09:39;21.30;54.10
36690;DHT22;22676;51.120;3.702;2022-11-21T06:12:05;21.40;54.00
36690;DHT22;22676;51.120;3.702;2022-11-21T06:14:30;21.30;53.20
36690;DHT22;22676;51.120;3.702;2022-11-21T06:16:56;21.30;53.30
36690;DHT22;22676;51.120;3.702;2022-11-21T06:19:21;21.20;53.20
36690;DHT22;22676;51.120;3.702;2022-11-21T06:21:47;21.20;53.10
36690;DHT22;22676;51.120;3.702;2022-11-21T06:24:12;21.30;53.70
36690;DHT22;22676;51.120;3.702;2022-11-21T06:26:38;21.30;53.90
36690;DHT22;22676;51.120;3.702;2022-11-21T06:29:03;21.30;53.80
36690;DHT22;22676;51.120;3.702;2022-11-21T06:31:29;21.30;53.30
36690;DHT22;22676;51.120;3.702;2022-11-21T06:33:57;21.30;53.40
36690;DHT22;22676;51.120;3.702;2022-11-21T06:36:22;21.20;53.10
36690;DHT22;22676;51.120;3.702;2022-11-21T06:38:48;21.20;52.90
36690;DHT22;22676;51.120;3.702;2022-11-21T06:41:15;21.20;53.10
36690;DHT22;22676;51.120;3.702;2022-11-21T06:43:41;21.30;53.60
36690;DHT22;22676;51.120;3.702;2022-11-21T06:46:06;21.30;52.40
36690;DHT22;22676;51.120;3.702;2022-11-21T06:48:32;21.30;52.50
36690;DHT22;22676;51.120;3.702;2022-11-21T06:51:17;21.30;52.60
36690;DHT22;22676;51.120;3.702;2022-11-21T06:53:43;21.20;52.70
36690;DHT22;22676;51.120;3.702;2022-11-21T06:56:09;21.20;52.80
36690;DHT22;22676;51.120;3.702;2022-11-21T06:58:35;21.30;53.30
36690;DHT22;22676;51.120;3.702;2022-11-21T07:01:04;21.40;53.40
36690;DHT22;22676;51.120;3.702;2022-11-21T07:03:30;21.50;52.60
36690;DHT22;22676;51.120;3.702;2022-11-21T07:05:55;21.40;52.80
36690;DHT22;22676;51.120;3.702;2022-11-21T07:08:24;21.40;53.40
36690;DHT22;22676;51.120;3.702;2022-11-21T07:10:51;21.40;53.30
36690;DHT22;22676;51.120;3.702;2022-11-21T07:13:17;21.40;53.40
36690;DHT22;22676;51.120;3.702;2022-11-21T07:15:52;21.40;53.40
36690;DHT22;22676;51.120;3.702;2022-11-21T07:18:18;21.50;53.80
36690;DHT22;22676;51.120;3.702;2022-11-21T07:20:44;21.50;53.60
36690;DHT22;22676;51.120;3.702;2022-11-21T07:23:10;21.40;53.30
36690;DHT22;22676;51.120;3.702;2022-11-21T07:25:35;21.40;53.30
36690;DHT22;22676;51.120;3.702;2022-11-21T07:28:01;21.40;52.90
36690;DHT22;22676;51.120;3.702;2022-11-21T07:30:27;21.40;53.10
36690;DHT22;22676;51.120;3.702;2022-11-21T07:33:03;21.40;53.20
36690;DHT22;22676;51.120;3.702;2022-11-21T07:35:30;21.50;53.40
36690;DHT22;22676;51.120;3.702;2022-11-21T07:37:55;21.50;53.10
36690;DHT22;22676;51.120;3.702;2022-11-21T07:40:21;21.50;53.00
36690;DHT22;22676;51.120;3.702;2022-11-21T07:42:47;21.50;53.00
36690;DHT22;22676;51.120;3.702;2022-11-21T07:45:12;21.50;53.00
36690;DHT22;22676;51.120;3.702;2022-11-21T07:47:38;21.50;53.00
36690;DHT22;22676;51.120;3.702;2022-11-21T07:50:04;21.50;53.10
36690;DHT22;22676;51.120;3.702;2022-11-21T07:52:30;21.50;53.10
36690;DHT22;22676;51.120;3.702;2022-11-21T07:54:55;21.50;53.10
36690;DHT22;22676;51.120;3.702;2022-11-21T07:57:21;21.50;53.00
36690;DHT22;22676;51.120;3.702;2022-11-21T07:59:47;21.50;53.10
36690;DHT22;22676;51.120;3.702;2022-11-21T08:02:17;21.50;53.10
36690;DHT22;22676;51.120;3.702;2022-11-21T08:04:42;21.50;52.90
36690;DHT22;22676;51.120;3.702;2022-11-21T08:07:09;21.50;52.90
36690;DHT22;22676;51.120;3.702;2022-11-21T08:09:34;21.40;53.00
36690;DHT22;22676;51.120;3.702;2022-11-21T08:12:00;21.40;53.10
36690;DHT22;22676;51.120;3.702;2022-11-21T08:14:25;21.40;53.10
36690;DHT22;22676;51.120;3.702;2022-11-21T08:16:51;21.40;53.10
36690;DHT22;22676;51.120;3.702;2022-11-21T08:19:17;21.30;53.20
36690;DHT22;22676;51.120;3.702;2022-11-21T08:21:42;21.30;53.20
36690;DHT22;22676;51.120;3.702;2022-11-21T08:24:08;21.40;53.40
36690;DHT22;22676;51.120;3.702;2022-11-21T08:26:37;21.40;53.40
36690;DHT22;22676;51.120;3.702;2022-11-21T08:29:03;21.40;53.20
36690;DHT22;22676;51.120;3.702;2022-11-21T08:31:28;21.50;53.30
36690;DHT22;22676;51.120;3.702;2022-11-21T08:33:55;21.50;53.20
36690;DHT22;22676;51.120;3.702;2022-11-21T08:36:21;21.40;53.30
36690;DHT22;22676;51.120;3.702;2022-11-21T08:38:46;21.40;53.30
36690;DHT22;22676;51.120;3.702;2022-11-21T08:41:12;21.50;53.60
36690;DHT22;22676;51.120;3.702;2022-11-21T08:43:56;21.50;53.60
36690;DHT22;22676;51.120;3.702;2022-11-21T08:46:22;21.50;53.40
36690;DHT22;22676;51.120;3.702;2022-11-21T08:48:52;21.50;53.30
36690;DHT22;22676;51.120;3.702;2022-11-21T08:51:17;21.50;53.30
36690;DHT22;22676;51.120;3.702;2022-11-21T08:53:43;21.50;53.20
36690;DHT22;22676;51.120;3.702;2022-11-21T08:56:08;21.50;53.30
36690;DHT22;22676;51.120;3.702;2022-11-21T08:58:34;21.40;53.20
36690;DHT22;22676;51.120;3.702;2022-11-21T09:00:59;21.50;53.40
36690;DHT22;22676;51.120;3.702;2022-11-21T09:03:25;21.50;53.50
36690;DHT22;22676;51.120;3.702;2022-11-21T09:05:51;21.50;53.40
36690;DHT22;22676;51.120;3.702;2022-11-21T09:08:16;21.50;53.40
36690;DHT22;22676;51.120;3.702;2022-11-21T09:10:42;21.50;53.30
36690;DHT22;22676;51.120;3.702;2022-11-21T09:13:07;21.50;53.30
36690;DHT22;22676;51.120;3.702;2022-11-21T09:15:33;21.40;53.30
36690;DHT22;22676;51.120;3.702;2022-11-21T09:18:37;21.40;53.40
36690;DHT22;22676;51.120;3.702;2022-11-21T09:21:02;21.40;53.50
36690;DHT22;22676;51.120;3.702;2022-11-21T09:23:28;21.40;53.50
36690;DHT22;22676;51.120;3.702;2022-11-21T09:25:53;21.30;52.50
36690;DHT22;22676;51.120;3.702;2022-11-21T09:28:20;21.20;52.00
36690;DHT22;22676;51.120;3.702;2022-11-21T09:30:46;21.20;51.60
36690;DHT22;22676;51.120;3.702;2022-11-21T09:33:12;21.10;51.50
36690;DHT22;22676;51.120;3.702;2022-11-21T09:35:38;21.10;51.90
36690;DHT22;22676;51.120;3.702;2022-11-21T09:38:04;21.10;52.30
36690;DHT22;22676;51.120;3.702;2022-11-21T09:40:30;21.30;52.50
36690;DHT22;22676;51.120;3.702;2022-11-21T09:43:01;21.30;52.20
36690;DHT22;22676;51.120;3.702;2022-11-21T09:45:40;21.40;52.10
36690;DHT22;22676;51.120;3.702;2022-11-21T09:48:08;21.20;52.20
36690;DHT22;22676;51.120;3.702;2022-11-21T09:50:40;21.30;52.20
36690;DHT22;22676;51.120;3.702;2022-11-21T09:53:11;21.30;52.20
36690;DHT22;22676;51.120;3.702;2022-11-21T09:55:51;21.30;52.40
36690;DHT22;22676;51.120;3.702;2022-11-21T09:58:29;21.30;52.30
36690;DHT22;22676;51.120;3.702;2022-11-21T10:00:55;21.40;52.30
36690;DHT22;22676;51.120;3.702;2022-11-21T10:03:21;21.40;52.20
36690;DHT22;22676;51.120;3.702;2022-11-21T10:05:50;21.30;52.20
36690;DHT22;22676;51.120;3.702;2022-11-21T10:08:22;21.30;52.10
36690;DHT22;22676;51.120;3.702;2022-11-21T10:10:58;21.30;52.10
36690;DHT22;22676;51.120;3.702;2022-11-21T10:13:43;21.40;52.50
36690;DHT22;22676;51.120;3.702;2022-11-21T10:16:28;21.40;52.40
36690;DHT22;22676;51.120;3.702;2022-11-21T10:19:12;21.40;52.20
36690;DHT22;22676;51.120;3.702;2022-11-21T10:29:10;21.30;52.10
36690;DHT22;22676;51.120;3.702;2022-11-21T10:31:37;21.40;52.40
36690;DHT22;22676;51.120;3.702;2022-11-21T10:34:08;21.40;52.50
36690;DHT22;22676;51.120;3.702;2022-11-21T10:36:35;21.40;52.30
36690;DHT22;22676;51.120;3.702;2022-11-21T10:39:04;21.40;52.20
36690;DHT22;22676;51.120;3.702;2022-11-21T10:44:26;21.40;52.30
36690;DHT22;22676;51.120;3.702;2022-11-21T10:49:39;21.50;52.50
36690;DHT22;22676;51.120;3.702;2022-11-21T10:52:06;21.50;52.40
36690;DHT22;22676;51.120;3.702;2022-11-21T10:54:49;21.40;52.20
36690;DHT22;22676;51.120;3.702;2022-11-21T10:57:19;21.50;52.20
36690;DHT22;22676;51.120;3.702;2022-11-21T10:59:54;21.40;52.20
36690;DHT22;22676;51.120;3.702;2022-11-21T11:02:22;21.40;52.20
36690;DHT22;22676;51.120;3.702;2022-11-21T11:04:48;21.40;52.20
36690;DHT22;22676;51.120;3.702;2022-11-21T11:07:21;21.50;52.30
36690;DHT22;22676;51.120;3.702;2022-11-21T11:09:47;21.50;52.20
36690;DHT22;22676;51.120;3.702;2022-11-21T11:12:23;21.50;52.00
36690;DHT22;22676;51.120;3.702;2022-11-21T11:14:50;21.50;52.00
36690;DHT22;22676;51.120;3.702;2022-11-21T11:17:24;21.50;52.00
36690;DHT22;22676;51.120;3.702;2022-11-21T11:20:06;21.50;52.00
36690;DHT22;22676;51.120;3.702;2022-11-21T11:22:44;21.40;51.90
36690;DHT22;22676;51.120;3.702;2022-11-21T11:25:09;21.50;52.10
36690;DHT22;22676;51.120;3.702;2022-11-21T11:27:35;21.50;52.10
36690;DHT22;22676;51.120;3.702;2022-11-21T11:30:04;21.50;52.10
36690;DHT22;22676;51.120;3.702;2022-11-21T11:32:30;21.50;52.00
36690;DHT22;22676;51.120;3.702;2022-11-21T11:37:31;21.50;52.10
36690;DHT22;22676;51.120;3.702;2022-11-21T11:48:10;21.50;52.10
36690;DHT22;22676;51.120;3.702;2022-11-21T11:50:47;21.50;52.20
36690;DHT22;22676;51.120;3.702;2022-11-21T11:53:20;21.40;52.10
36690;DHT22;22676;51.120;3.702;2022-11-21T11:58:32;21.40;52.30
36690;DHT22;22676;51.120;3.702;2022-11-21T12:06:37;21.50;52.40
36690;DHT22;22676;51.120;3.702;2022-11-21T12:09:30;21.50;52.40
36690;DHT22;22676;51.120;3.702;2022-11-21T12:11:53;21.50;52.50
36690;DHT22;22676;51.120;3.702;2022-11-21T12:17:20;21.50;52.40
36690;DHT22;22676;51.120;3.702;2022-11-21T12:19:48;21.60;52.60
36690;DHT22;22676;51.120;3.702;2022-11-21T12:22:15;21.60;52.50
36690;DHT22;22676;51.120;3.702;2022-11-21T12:24:41;21.60;52.60
36690;DHT22;22676;51.120;3.702;2022-11-21T12:27:16;21.50;52.50
36690;DHT22;22676;51.120;3.702;2022-11-21T12:48:04;21.50;52.70
36690;DHT22;22676;51.120;3.702;2022-11-21T12:56:44;21.60;52.70
36690;DHT22;22676;51.120;3.702;2022-11-21T12:59:11;21.50;52.60
36690;DHT22;22676;51.120;3.702;2022-11-21T13:01:57;21.50;52.60
36690;DHT22;22676;51.120;3.702;2022-11-21T13:04:25;21.50;52.70
36690;DHT22;22676;51.120;3.702;2022-11-21T13:06:53;21.50;52.60
36690;DHT22;22676;51.120;3.702;2022-11-21T13:09:19;21.60;52.90
36690;DHT22;22676;51.120;3.702;2022-11-21T13:17:11;21.60;52.70
36690;DHT22;22676;51.120;3.702;2022-11-21T13:22:59;21.50;52.70
36690;DHT22;22676;51.120;3.702;2022-11-21T13:24:59;21.50;52.90
36690;DHT22;22676;51.120;3.702;2022-11-21T13:27:31;21.60;52.90
36690;DHT22;22676;51.120;3.702;2022-11-21T13:38:06;21.50;52.80
36690;DHT22;22676;51.120;3.702;2022-11-21T13:48:16;21.60;52.70
36690;DHT22;22676;51.120;3.702;2022-11-21T13:53:22;21.50;52.50
36690;DHT22;22676;51.120;3.702;2022-11-21T13:55:55;21.50;52.70
36690;DHT22;22676;51.120;3.702;2022-11-21T14:11:35;21.50;52.80
36690;DHT22;22676;51.120;3.702;2022-11-21T14:14:04;21.50;52.80
36690;DHT22;22676;51.120;3.702;2022-11-21T14:16:31;21.50;52.70
36690;DHT22;22676;51.120;3.702;2022-11-21T14:18:59;21.60;52.70
36690;DHT22;22676;51.120;3.702;2022-11-21T14:21:26;21.50;52.50
36690;DHT22;22676;51.120;3.702;2022-11-21T14:23:56;21.60;52.80
36690;DHT22;22676;51.120;3.702;2022-11-21T14:26:22;21.50;52.90
36690;DHT22;22676;51.120;3.702;2022-11-21T14:28:50;21.50;53.00
36690;DHT22;22676;51.120;3.702;2022-11-21T14:31:15;21.50;52.90
36690;DHT22;22676;51.120;3.702;2022-11-21T14:33:42;21.60;52.80
36690;DHT22;22676;51.120;3.702;2022-11-21T14:38:39;21.60;52.50
36690;DHT22;22676;51.120;3.702;2022-11-21T14:43:37;21.50;52.70
36690;DHT22;22676;51.120;3.702;2022-11-21T14:46:03;21.50;52.80
36690;DHT22;22676;51.120;3.702;2022-11-21T14:48:29;21.60;52.70
36690;DHT22;22676;51.120;3.702;2022-11-21T14:50:55;21.60;52.70
36690;DHT22;22676;51.120;3.702;2022-11-21T14:53:22;21.60;52.50
36690;DHT22;22676;51.120;3.702;2022-11-21T14:55:48;21.60;52.60
36690;DHT22;22676;51.120;3.702;2022-11-21T14:58:15;21.60;52.70
36690;DHT22;22676;51.120;3.702;2022-11-21T15:00:41;21.60;52.90
36690;DHT22;22676;51.120;3.702;2022-11-21T15:03:25;21.50;52.60
36690;DHT22;22676;51.120;3.702;2022-11-21T15:06:03;21.50;52.50
36690;DHT22;22676;51.120;3.702;2022-11-21T15:08:33;21.50;52.20
36690;DHT22;22676;51.120;3.702;2022-11-21T15:10:59;21.50;52.30
36690;DHT22;22676;51.120;3.702;2022-11-21T15:13:25;21.50;52.40
36690;DHT22;22676;51.120;3.702;2022-11-21T15:15:52;21.40;52.50
36690;DHT22;22676;51.120;3.702;2022-11-21T15:18:22;21.50;52.40
36690;DHT22;22676;51.120;3.702;2022-11-21T15:20:52;21.50;52.30
36690;DHT22;22676;51.120;3.702;2022-11-21T15:23:24;21.50;52.20
36690;DHT22;22676;51.120;3.702;2022-11-21T15:25:50;21.50;52.20
36690;DHT22;22676;51.120;3.702;2022-11-21T15:28:16;21.50;52.20
36690;DHT22;22676;51.120;3.702;2022-11-21T15:30:42;21.50;52.40
36690;DHT22;22676;51.120;3.702;2022-11-21T15:33:10;21.50;52.30
36690;DHT22;22676;51.120;3.702;2022-11-21T15:38:02;21.60;52.10
36690;DHT22;22676;51.120;3.702;2022-11-21T15:40:27;21.60;52.20
36690;DHT22;22676;51.120;3.702;2022-11-21T15:42:52;21.60;52.60
36690;DHT22;22676;51.120;3.702;2022-11-21T15:47:44;21.40;52.10
36690;DHT22;22676;51.120;3.702;2022-11-21T15:50:10;21.50;51.90
36690;DHT22;22676;51.120;3.702;2022-11-21T15:52:45;21.50;51.80
36690;DHT22;22676;51.120;3.702;2022-11-21T15:55:17;21.50;51.90
36690;DHT22;22676;51.120;3.702;2022-11-21T15:57:42;21.50;51.90
36690;DHT22;22676;51.120;3.702;2022-11-21T16:00:08;21.50;51.80
36690;DHT22;22676;51.120;3.702;2022-11-21T16:02:34;21.50;51.80
36690;DHT22;22676;51.120;3.702;2022-11-21T16:04:59;21.60;51.80
36690;DHT22;22676;51.120;3.702;2022-11-21T16:07:25;21.60;52.00
36690;DHT22;22676;51.120;3.702;2022-11-21T16:09:51;21.50;51.90
36690;DHT22;22676;51.120;3.702;2022-11-21T16:12:16;21.50;52.00
36690;DHT22;22676;51.120;3.702;2022-11-21T16:14:42;21.40;52.00
36690;DHT22;22676;51.120;3.702;2022-11-21T16:17:07;21.50;52.00
36690;DHT22;22676;51.120;3.702;2022-11-21T16:19:33;21.50;51.90
36690;DHT22;22676;51.120;3.702;2022-11-21T16:21:58;21.50;52.00
36690;DHT22;22676;51.120;3.702;2022-11-21T16:24:24;21.40;51.80
36690;DHT22;22676;51.120;3.702;2022-11-21T16:26:49;21.40;51.20
36690;DHT22;22676;51.120;3.702;2022-11-21T16:29:18;21.30;51.20
36690;DHT22;22676;51.120;3.702;2022-11-21T16:31:44;21.20;51.00
36690;DHT22;22676;51.120;3.702;2022-11-21T16:34:09;21.10;51.10
36690;DHT22;22676;51.120;3.702;2022-11-21T16:36:35;21.10;50.80
36690;DHT22;22676;51.120;3.702;2022-11-21T16:39:00;21.20;50.10
36690;DHT22;22676;51.120;3.702;2022-11-21T16:41:26;20.90;49.10
36690;DHT22;22676;51.120;3.702;2022-11-21T16:43:52;20.70;49.40
36690;DHT22;22676;51.120;3.702;2022-11-21T16:46:19;20.30;50.40
36690;DHT22;22676;51.120;3.702;2022-11-21T16:48:45;20.10;50.40
36690;DHT22;22676;51.120;3.702;2022-11-21T16:51:17;20.00;51.60
36690;DHT22;22676;51.120;3.702;2022-11-21T16:53:43;20.20;51.00
36690;DHT22;22676;51.120;3.702;2022-11-21T16:56:09;20.20;51.00
36690;DHT22;22676;51.120;3.702;2022-11-21T16:58:35;20.10;51.10
36690;DHT22;22676;51.120;3.702;2022-11-21T17:01:08;20.10;51.40
36690;DHT22;22676;51.120;3.702;2022-11-21T17:03:35;20.10;51.60
36690;DHT22;22676;51.120;3.702;2022-11-21T17:06:01;20.10;51.50
36690;DHT22;22676;51.120;3.702;2022-11-21T17:08:27;20.10;51.10
36690;DHT22;22676;51.120;3.702;2022-11-21T17:10:52;20.10;50.90
36690;DHT22;22676;51.120;3.702;2022-11-21T17:13:19;20.20;50.80
36690;DHT22;22676;51.120;3.702;2022-11-21T17:15:45;20.10;50.40
36690;DHT22;22676;51.120;3.702;2022-11-21T17:18:10;20.10;50.50
36690;DHT22;22676;51.120;3.702;2022-11-21T17:20:36;20.00;50.60
36690;DHT22;22676;51.120;3.702;2022-11-21T17:23:02;19.90;50.90
36690;DHT22;22676;51.120;3.702;2022-11-21T17:25:27;19.80;51.20
36690;DHT22;22676;51.120;3.702;2022-11-21T17:27:53;19.90;51.40
36690;DHT22;22676;51.120;3.702;2022-11-21T17:30:18;20.00;51.60
36690;DHT22;22676;51.120;3.702;2022-11-21T17:32:44;20.00;51.10